createdAt,value
2018-03-04T00:00:47.634Z,69.10
2018-03-04T00:01:47.785Z,69.90
2018-03-04T00:02:47.938Z,68.90
2018-03-04T00:03:48.090Z,69.30
2018-03-04T00:04:48.241Z,68.00
2018-03-04T00:05:48.399Z,68.40
2018-03-04T00:06:48.550Z,66.60
2018-03-04T00:07:48.693Z,68.50
2018-03-04T00:08:48.845Z,69.20
2018-03-04T00:09:49.009Z,69.50
2018-03-04T00:10:49.157Z,68.00
2018-03-04T00:11:49.309Z,68.60
2018-03-04T00:12:49.459Z,70.80
2018-03-04T00:13:49.614Z,68.70
2018-03-04T00:14:49.763Z,70.30
2018-03-04T00:15:49.915Z,68.30
2018-03-04T00:16:50.067Z,69.70
2018-03-04T00:17:50.218Z,70.00
2018-03-04T00:18:50.379Z,69.40
2018-03-04T00:19:50.519Z,70.00
2018-03-04T00:20:50.671Z,70.50
2018-03-04T00:21:50.823Z,69.40
2018-03-04T00:22:50.985Z,69.00
2018-03-04T00:23:51.144Z,68.60
2018-03-04T00:24:51.278Z,68.00
2018-03-04T00:25:51.436Z,67.70
2018-03-04T00:26:51.601Z,68.50
2018-03-04T00:27:51.736Z,70.50
2018-03-04T00:28:51.888Z,68.40
2018-03-04T00:29:52.039Z,70.60
2018-03-04T00:30:52.195Z,71.80
2018-03-04T00:31:52.343Z,68.20
2018-03-04T00:32:52.494Z,71.20
2018-03-04T00:33:52.647Z,70.10
2018-03-04T00:34:52.798Z,71.90
2018-03-04T00:35:52.953Z,68.10
2018-03-04T00:36:53.099Z,68.80
2018-03-04T00:37:53.255Z,68.50
2018-03-04T00:38:53.406Z,69.50
2018-03-04T00:39:53.564Z,71.60
2018-03-04T00:40:53.718Z,70.40
2018-03-04T00:41:53.863Z,70.30
2018-03-04T00:42:54.016Z,68.20
2018-03-04T00:43:54.167Z,69.20
2018-03-04T00:44:54.319Z,71.00
2018-03-04T00:45:54.472Z,70.90
2018-03-04T00:46:54.623Z,69.50
2018-03-04T00:47:54.781Z,68.80
2018-03-04T00:48:54.924Z,68.20
2018-03-04T00:49:55.075Z,67.00
2018-03-04T00:50:55.227Z,66.90
2018-03-04T00:51:55.386Z,67.40
2018-03-04T00:52:55.541Z,69.20
2018-03-04T00:53:55.687Z,67.40
2018-03-04T00:54:55.838Z,68.20
2018-03-04T00:55:55.994Z,68.10
2018-03-04T00:56:56.141Z,69.20
2018-03-04T00:57:56.290Z,68.80
2018-03-04T00:58:56.446Z,67.00
2018-03-04T00:59:56.607Z,66.90
2018-03-04T01:00:56.750Z,68.70
2018-03-04T01:01:56.905Z,66.60
2018-03-04T01:02:57.054Z,67.10
2018-03-04T01:03:57.213Z,66.40
2018-03-04T01:04:57.364Z,68.70
2018-03-04T01:05:57.516Z,68.10
2018-03-04T01:06:57.668Z,69.10
2018-03-04T01:07:57.823Z,70.40
2018-03-04T01:08:57.971Z,68.50
2018-03-04T01:09:58.123Z,67.70
2018-03-04T01:10:58.275Z,68.00
2018-03-04T01:11:58.425Z,67.40
2018-03-04T01:12:58.575Z,67.00
2018-03-04T01:13:58.727Z,68.80
2018-03-04T01:14:58.878Z,69.10
2018-03-04T01:15:59.038Z,71.90
2018-03-04T01:16:59.187Z,69.60
2018-03-04T01:17:59.340Z,69.80
2018-03-04T01:18:59.494Z,68.30
2018-03-04T01:19:59.647Z,70.20
2018-03-04T01:20:59.797Z,68.50
2018-03-04T01:21:59.950Z,68.00
2018-03-04T01:23:00.103Z,69.60
2018-03-04T01:24:00.258Z,70.90
2018-03-04T01:25:00.401Z,68.50
2018-03-04T01:26:00.553Z,68.70
2018-03-04T01:27:00.702Z,67.90
2018-03-04T01:28:00.873Z,70.00
2018-03-04T01:29:01.022Z,68.20
2018-03-04T01:30:01.174Z,68.60
2018-03-04T01:31:01.323Z,68.40
2018-03-04T01:32:01.473Z,71.20
2018-03-04T01:33:01.626Z,70.40
2018-03-04T01:34:01.770Z,67.70
2018-03-04T01:35:01.938Z,68.30
2018-03-04T01:36:02.089Z,67.70
2018-03-04T01:37:02.243Z,67.00
2018-03-04T01:38:02.394Z,68.30
2018-03-04T01:39:02.546Z,68.00
2018-03-04T01:40:02.698Z,68.70
2018-03-04T01:41:02.903Z,69.60
2018-03-04T01:42:03.012Z,68.90
2018-03-04T01:43:03.163Z,69.10
2018-03-04T01:44:03.315Z,68.40
2018-03-04T01:45:03.466Z,70.30
2018-03-04T01:46:03.617Z,68.00
2018-03-04T01:47:03.769Z,68.10
2018-03-04T01:48:03.915Z,69.30
2018-03-04T01:49:04.081Z,69.20
2018-03-04T01:50:04.239Z,68.40
2018-03-04T01:51:04.373Z,69.00
2018-03-04T01:52:04.527Z,70.80
2018-03-04T01:53:04.678Z,69.40
2018-03-04T01:54:04.838Z,67.60
2018-03-04T01:55:04.986Z,66.40
2018-03-04T01:56:05.147Z,68.20
2018-03-04T01:57:05.312Z,70.20
2018-03-04T01:58:05.462Z,68.70
2018-03-04T01:59:05.618Z,67.90
2018-03-04T02:00:05.766Z,69.30
2018-03-04T02:01:05.917Z,70.90
2018-03-04T02:02:06.069Z,69.50
2018-03-04T02:03:06.222Z,70.90
2018-03-04T02:04:06.382Z,70.50
2018-03-04T02:05:06.524Z,69.70
2018-03-04T02:06:06.674Z,69.10
2018-03-04T02:07:06.826Z,69.70
2018-03-04T02:08:06.985Z,68.70
2018-03-04T02:09:07.136Z,69.30
2018-03-04T02:10:07.289Z,68.70
2018-03-04T02:11:07.440Z,68.40
2018-03-04T02:12:07.591Z,68.80
2018-03-04T02:13:07.742Z,69.50
2018-03-04T02:14:07.890Z,71.00
2018-03-04T02:15:08.048Z,68.90
2018-03-04T02:16:08.206Z,69.90
2018-03-04T02:17:08.348Z,70.40
2018-03-04T02:18:08.501Z,71.50
2018-03-04T02:19:08.655Z,72.20
2018-03-04T02:20:08.815Z,70.00
2018-03-04T02:21:08.967Z,71.00
2018-03-04T02:22:09.119Z,69.90
2018-03-04T02:23:09.270Z,70.50
2018-03-04T02:24:09.419Z,71.60
2018-03-04T02:25:09.574Z,70.50
2018-03-04T02:26:09.724Z,71.00
2018-03-04T02:27:09.885Z,72.30
2018-03-04T02:28:10.040Z,72.30
2018-03-04T02:29:10.188Z,72.40
2018-03-04T02:30:10.341Z,72.10
2018-03-04T02:31:10.501Z,71.70
2018-03-04T02:32:10.644Z,74.30
2018-03-04T02:33:10.790Z,73.70
2018-03-04T02:34:10.947Z,73.10
2018-03-04T02:35:11.110Z,72.70
2018-03-04T02:36:11.247Z,71.90
2018-03-04T02:37:11.398Z,74.20
2018-03-04T02:38:11.544Z,74.40
2018-03-04T02:39:11.709Z,74.40
2018-03-04T02:40:11.859Z,75.00
2018-03-04T02:41:12.002Z,72.10
2018-03-04T02:42:12.155Z,73.40
2018-03-04T02:43:12.307Z,72.90
2018-03-04T02:44:12.468Z,74.00
2018-03-04T02:45:12.623Z,75.10
2018-03-04T02:46:12.773Z,74.00
2018-03-04T02:47:12.932Z,75.00
2018-03-04T02:48:13.074Z,72.80
2018-03-04T02:49:13.227Z,72.90
2018-03-04T02:50:13.386Z,72.50
2018-03-04T02:51:13.537Z,75.60
2018-03-04T02:52:13.696Z,73.80
2018-03-04T02:53:13.843Z,72.80
2018-03-04T02:54:13.994Z,71.20
2018-03-04T02:55:14.146Z,74.90
2018-03-04T02:56:14.298Z,74.60
2018-03-04T02:57:14.450Z,72.50
2018-03-04T02:58:14.610Z,72.40
2018-03-04T02:59:14.761Z,75.30
2018-03-04T03:00:14.922Z,74.80
2018-03-04T03:01:15.068Z,73.70
2018-03-04T03:02:15.220Z,76.20
2018-03-04T03:03:15.369Z,73.30
2018-03-04T03:04:15.523Z,73.80
2018-03-04T03:05:15.675Z,74.40
2018-03-04T03:06:15.842Z,74.00
2018-03-04T03:07:15.985Z,74.10
2018-03-04T03:08:16.130Z,72.10
2018-03-04T03:09:16.283Z,72.50
2018-03-04T03:10:16.439Z,74.90
2018-03-04T03:11:16.593Z,74.90
2018-03-04T03:12:16.743Z,73.20
2018-03-04T03:13:16.938Z,72.10
2018-03-04T03:14:17.046Z,73.70
2018-03-04T03:15:17.199Z,74.90
2018-03-04T03:16:17.352Z,72.80
2018-03-04T03:17:17.512Z,73.30
2018-03-04T03:18:17.670Z,73.50
2018-03-04T03:19:17.816Z,74.80
2018-03-04T03:20:17.969Z,74.70
2018-03-04T03:21:18.118Z,74.70
2018-03-04T03:22:18.270Z,76.50
2018-03-04T03:23:18.422Z,77.00
2018-03-04T03:24:18.574Z,72.70
2018-03-04T03:25:18.731Z,74.60
2018-03-04T03:26:18.876Z,75.40
2018-03-04T03:27:19.029Z,74.80
2018-03-04T03:28:19.177Z,73.80
2018-03-04T03:29:19.348Z,73.90
2018-03-04T03:30:19.492Z,73.80
2018-03-04T03:31:19.648Z,76.20
2018-03-04T03:32:19.805Z,76.30
2018-03-04T03:33:19.948Z,76.00
2018-03-04T03:34:20.103Z,75.80
2018-03-04T03:35:20.254Z,76.70
2018-03-04T03:36:20.413Z,77.20
2018-03-04T03:37:20.562Z,76.10
2018-03-04T03:38:20.717Z,74.40
2018-03-04T03:39:20.870Z,76.20
2018-03-04T03:40:21.019Z,74.90
2018-03-04T03:41:21.171Z,75.80
2018-03-04T03:42:21.324Z,76.00
2018-03-04T03:43:21.484Z,77.20
2018-03-04T03:44:21.631Z,76.60
2018-03-04T03:45:21.790Z,75.40
2018-03-04T03:46:21.943Z,74.40
2018-03-04T03:47:22.092Z,75.40
2018-03-04T03:48:22.245Z,76.70
2018-03-04T03:49:22.389Z,74.90
2018-03-04T03:50:22.548Z,76.50
2018-03-04T03:51:22.707Z,78.70
2018-03-04T03:52:22.848Z,78.60
2018-03-04T03:53:23.000Z,79.00
2018-03-04T03:54:23.151Z,76.80
2018-03-04T03:55:23.311Z,77.00
2018-03-04T03:56:23.461Z,77.00
2018-03-04T03:57:23.614Z,77.70
2018-03-04T03:58:23.766Z,77.30
2018-03-04T03:59:23.918Z,79.90
2018-03-04T04:00:24.072Z,79.80
2018-03-04T04:01:24.221Z,77.60
2018-03-04T04:02:24.375Z,79.10
2018-03-04T04:03:24.531Z,79.20
2018-03-04T04:04:24.675Z,77.40
2018-03-04T04:05:24.827Z,76.40
2018-03-04T04:06:24.981Z,75.50
2018-03-04T04:07:25.138Z,77.80
2018-03-04T04:08:25.288Z,78.10
2018-03-04T04:09:25.441Z,77.20
2018-03-04T04:10:25.595Z,77.40
2018-03-04T04:11:25.745Z,77.60
2018-03-04T04:12:25.902Z,76.50
2018-03-04T04:13:26.055Z,77.30
2018-03-04T04:14:26.198Z,77.10
2018-03-04T04:15:26.355Z,76.90
2018-03-04T04:16:26.501Z,77.00
2018-03-04T04:17:26.651Z,78.60
2018-03-04T04:18:26.803Z,77.80
2018-03-04T04:19:26.962Z,78.80
2018-03-04T04:20:27.113Z,77.90
2018-03-04T04:21:27.268Z,77.80
2018-03-04T04:22:27.420Z,80.20
2018-03-04T04:23:27.570Z,77.20
2018-03-04T04:24:27.717Z,76.30
2018-03-04T04:25:27.866Z,77.50
2018-03-04T04:26:28.026Z,78.40
2018-03-04T04:27:28.184Z,76.60
2018-03-04T04:28:28.327Z,75.90
2018-03-04T04:29:28.479Z,77.40
2018-03-04T04:30:28.631Z,75.90
2018-03-04T04:31:28.791Z,76.40
2018-03-04T04:32:28.940Z,76.50
2018-03-04T04:33:29.095Z,77.40
2018-03-04T04:34:29.247Z,77.40
2018-03-04T04:35:29.397Z,76.60
2018-03-04T04:36:29.549Z,79.10
2018-03-04T04:37:29.696Z,81.10
2018-03-04T04:38:29.863Z,80.90
2018-03-04T04:39:30.020Z,77.60
2018-03-04T04:40:30.162Z,75.20
2018-03-04T04:41:30.314Z,74.90
2018-03-04T04:42:30.466Z,76.50
2018-03-04T04:43:30.618Z,75.80
2018-03-04T04:44:30.767Z,78.90
2018-03-04T04:45:30.921Z,78.00
2018-03-04T04:46:31.074Z,77.00
2018-03-04T04:47:31.224Z,77.20
2018-03-04T04:48:31.377Z,80.60
2018-03-04T04:49:31.531Z,76.50
2018-03-04T04:50:31.688Z,78.00
2018-03-04T04:51:31.836Z,76.00
2018-03-04T04:52:31.998Z,77.00
2018-03-04T04:53:32.148Z,77.10
2018-03-04T04:54:32.295Z,75.40
2018-03-04T04:55:32.446Z,76.60
2018-03-04T04:56:32.594Z,76.60
2018-03-04T04:57:32.751Z,77.70
2018-03-04T04:58:32.909Z,77.10
2018-03-04T04:59:33.056Z,78.10
2018-03-04T05:00:33.207Z,76.40
2018-03-04T05:01:33.358Z,76.80
2018-03-04T05:02:33.521Z,78.70
2018-03-04T05:03:33.673Z,80.00
2018-03-04T05:04:33.825Z,78.70
2018-03-04T05:05:33.992Z,77.10
2018-03-04T05:06:34.128Z,81.60
2018-03-04T05:07:34.280Z,79.20
2018-03-04T05:08:34.432Z,77.40
2018-03-04T05:09:34.593Z,78.70
2018-03-04T05:10:34.776Z,80.00
2018-03-04T05:11:34.897Z,79.00
2018-03-04T05:12:35.059Z,80.60
2018-03-04T05:13:35.199Z,79.50
2018-03-04T05:14:35.351Z,81.30
2018-03-04T05:15:35.503Z,79.10
2018-03-04T05:16:35.663Z,79.40
2018-03-04T05:17:35.814Z,81.10
2018-03-04T05:18:35.967Z,79.30
2018-03-04T05:19:36.118Z,78.70
2018-03-04T05:20:36.271Z,79.50
2018-03-04T05:21:36.424Z,76.90
2018-03-04T05:22:36.579Z,81.00
2018-03-04T05:23:36.736Z,78.80
2018-03-04T05:24:36.883Z,77.80
2018-03-04T05:25:37.044Z,75.90
2018-03-04T05:26:37.194Z,80.20
2018-03-04T05:27:37.343Z,78.30
2018-03-04T05:28:37.495Z,77.40
2018-03-04T05:29:37.648Z,76.10
2018-03-04T05:30:37.804Z,77.10
2018-03-04T05:31:37.960Z,76.30
2018-03-04T05:32:38.101Z,76.60
2018-03-04T05:33:38.255Z,76.80
2018-03-04T05:34:38.410Z,77.00
2018-03-04T05:35:38.567Z,76.60
2018-03-04T05:36:38.718Z,77.30
2018-03-04T05:37:38.871Z,76.00
2018-03-04T05:38:39.030Z,78.10
2018-03-04T05:39:39.174Z,77.00
2018-03-04T05:40:39.329Z,75.60
2018-03-04T05:41:39.478Z,78.80
2018-03-04T05:42:39.640Z,75.00
2018-03-04T05:43:39.793Z,77.90
2018-03-04T05:44:39.946Z,77.50
2018-03-04T05:45:40.101Z,78.60
2018-03-04T05:46:40.248Z,77.70
2018-03-04T05:47:40.410Z,78.00
2018-03-04T05:48:40.551Z,77.40
2018-03-04T05:49:40.710Z,78.40
2018-03-04T05:50:40.860Z,78.60
2018-03-04T05:51:41.017Z,80.00
2018-03-04T05:52:41.168Z,78.50
2018-03-04T05:53:41.317Z,78.90
2018-03-04T05:54:41.470Z,78.70
2018-03-04T05:55:41.617Z,79.30
2018-03-04T05:56:41.773Z,79.90
2018-03-04T05:57:41.929Z,78.20
2018-03-04T05:58:42.075Z,80.40
2018-03-04T05:59:42.227Z,79.50
2018-03-04T06:00:42.394Z,77.30
2018-03-04T06:01:42.546Z,79.40
2018-03-04T06:02:42.704Z,75.40
2018-03-04T06:03:42.863Z,76.20
2018-03-04T06:04:43.007Z,77.70
2018-03-04T06:05:43.163Z,77.10
2018-03-04T06:06:43.315Z,77.60
2018-03-04T06:07:43.462Z,77.60
2018-03-04T06:08:43.617Z,75.00
2018-03-04T06:09:43.770Z,75.70
2018-03-04T06:10:43.931Z,74.00
2018-03-04T06:11:44.083Z,76.10
2018-03-04T06:12:44.238Z,77.80
2018-03-04T06:13:44.399Z,75.40
2018-03-04T06:14:44.541Z,76.50
2018-03-04T06:15:44.694Z,76.20
2018-03-04T06:16:44.847Z,76.10
2018-03-04T06:17:45.012Z,77.70
2018-03-04T06:18:45.161Z,77.50
2018-03-04T06:19:45.314Z,76.90
2018-03-04T06:20:45.473Z,79.10
2018-03-04T06:21:45.617Z,77.40
2018-03-04T06:22:45.771Z,76.70
2018-03-04T06:23:45.924Z,79.60
2018-03-04T06:24:46.137Z,78.10
2018-03-04T06:25:46.229Z,76.20
2018-03-04T06:26:46.387Z,78.30
2018-03-04T06:27:46.538Z,76.80
2018-03-04T06:28:46.687Z,80.40
2018-03-04T06:29:46.840Z,77.30
2018-03-04T06:30:46.992Z,74.90
2018-03-04T06:31:47.153Z,74.40
2018-03-04T06:32:47.306Z,77.60
2018-03-04T06:33:47.458Z,76.10
2018-03-04T06:34:47.610Z,77.20
2018-03-04T06:35:47.765Z,76.50
2018-03-04T06:36:47.913Z,76.30
2018-03-04T06:37:48.066Z,77.60
2018-03-04T06:38:48.227Z,75.50
2018-03-04T06:39:48.380Z,77.70
2018-03-04T06:40:48.524Z,77.00
2018-03-04T06:41:48.676Z,77.10
2018-03-04T06:42:48.832Z,75.10
2018-03-04T06:43:48.982Z,76.00
2018-03-04T06:44:49.137Z,75.90
2018-03-04T06:45:49.281Z,74.60
2018-03-04T06:46:49.434Z,76.50
2018-03-04T06:47:49.900Z,76.20
2018-03-04T06:48:50.144Z,75.90
2018-03-04T06:49:49.908Z,74.10
2018-03-04T06:50:50.293Z,74.10
2018-03-04T06:51:50.214Z,74.50
2018-03-04T06:52:50.379Z,75.90
2018-03-04T06:53:50.521Z,75.50
2018-03-04T06:54:50.680Z,74.40
2018-03-04T06:55:50.836Z,74.70
2018-03-04T06:56:50.983Z,75.40
2018-03-04T06:57:51.136Z,74.00
2018-03-04T06:58:51.289Z,74.50
2018-03-04T06:59:51.447Z,77.50
2018-03-04T07:00:51.597Z,75.50
2018-03-04T07:01:51.756Z,76.50
2018-03-04T07:02:51.908Z,77.60
2018-03-04T07:03:52.057Z,79.90
2018-03-04T07:04:52.248Z,76.30
2018-03-04T07:05:52.363Z,76.70
2018-03-04T07:06:52.523Z,76.20
2018-03-04T07:07:52.674Z,74.80
2018-03-04T07:08:52.824Z,72.80
2018-03-04T07:09:52.978Z,72.40
2018-03-04T07:10:53.128Z,74.80
2018-03-04T07:11:53.281Z,77.20
2018-03-04T07:12:53.434Z,74.50
2018-03-04T07:13:53.595Z,74.20
2018-03-04T07:14:53.752Z,75.70
2018-03-04T07:15:53.900Z,75.40
2018-03-04T07:16:54.102Z,75.60
2018-03-04T07:17:54.203Z,73.90
2018-03-04T07:18:54.356Z,76.40
2018-03-04T07:19:54.511Z,77.40
2018-03-04T07:20:54.669Z,76.90
2018-03-04T07:21:54.820Z,78.00
2018-03-04T07:22:54.976Z,75.70
2018-03-04T07:23:55.128Z,74.80
2018-03-04T07:24:55.278Z,76.50
2018-03-04T07:25:55.431Z,75.00
2018-03-04T07:26:55.588Z,74.60
2018-03-04T07:27:55.743Z,73.80
2018-03-04T07:28:55.895Z,73.40
2018-03-04T07:29:56.048Z,74.70
2018-03-04T07:30:56.201Z,74.70
2018-03-04T07:31:56.351Z,75.70
2018-03-04T07:32:56.512Z,74.40
2018-03-04T07:33:56.649Z,73.40
2018-03-04T07:34:56.801Z,73.40
2018-03-04T07:35:56.965Z,71.70
2018-03-04T07:36:57.105Z,73.80
2018-03-04T07:37:57.258Z,72.10
2018-03-04T07:38:57.413Z,73.40
2018-03-04T07:39:57.571Z,72.60
2018-03-04T07:40:57.723Z,73.40
2018-03-04T07:41:57.868Z,71.90
2018-03-04T07:42:58.020Z,75.80
2018-03-04T07:43:58.173Z,75.90
2018-03-04T07:44:58.326Z,75.40
2018-03-04T07:45:58.482Z,75.90
2018-03-04T07:46:58.633Z,76.80
2018-03-04T07:47:58.788Z,73.20
2018-03-04T07:48:58.936Z,74.80
2018-03-04T07:49:59.086Z,73.90
2018-03-04T07:50:59.239Z,75.50
2018-03-04T07:51:59.398Z,78.20
2018-03-04T07:52:59.555Z,75.20
2018-03-04T07:53:59.703Z,74.80
2018-03-04T07:54:59.869Z,76.10
2018-03-04T07:56:00.008Z,74.00
2018-03-04T07:57:00.160Z,74.10
2018-03-04T07:58:00.313Z,73.70
2018-03-04T07:59:00.477Z,75.10
2018-03-04T08:00:02.852Z,73.60
2018-03-04T08:01:00.773Z,74.00
2018-03-04T08:02:00.924Z,73.70
2018-03-04T08:03:01.080Z,74.90
2018-03-04T08:04:01.237Z,74.10
2018-03-04T08:05:01.383Z,72.60
2018-03-04T08:06:01.528Z,75.00
2018-03-04T08:07:01.690Z,74.80
2018-03-04T08:08:01.838Z,70.80
2018-03-04T08:09:01.982Z,73.20
2018-03-04T08:10:02.131Z,73.70
2018-03-04T08:11:02.295Z,74.50
2018-03-04T08:12:02.448Z,74.80
2018-03-04T08:13:02.601Z,72.30
2018-03-04T08:14:02.759Z,73.70
2018-03-04T08:15:02.906Z,73.40
2018-03-04T08:16:03.063Z,71.00
2018-03-04T08:17:03.213Z,74.00
2018-03-04T08:18:03.375Z,73.80
2018-03-04T08:19:03.528Z,72.40
2018-03-04T08:20:03.690Z,71.80
2018-03-04T08:21:03.842Z,73.80
2018-03-04T08:22:03.997Z,72.60
2018-03-04T08:23:04.158Z,69.80
2018-03-04T08:24:04.302Z,70.10
2018-03-04T08:25:04.455Z,70.00
2018-03-04T08:26:04.609Z,72.40
2018-03-04T08:27:04.766Z,68.30
2018-03-04T08:28:04.915Z,69.40
2018-03-04T08:29:05.073Z,69.40
2018-03-04T08:30:05.231Z,74.50
2018-03-04T08:31:05.378Z,72.40
2018-03-04T08:32:05.532Z,71.50
2018-03-04T08:33:05.707Z,71.60
2018-03-04T08:34:05.864Z,72.70
2018-03-04T08:35:06.014Z,72.60
2018-03-04T08:36:06.170Z,71.80
2018-03-04T08:37:06.321Z,71.60
2018-03-04T08:38:06.481Z,73.20
2018-03-04T08:39:06.635Z,72.40
2018-03-04T08:40:06.789Z,73.20
2018-03-04T08:41:06.950Z,72.20
2018-03-04T08:42:07.094Z,71.00
2018-03-04T08:43:07.247Z,73.90
2018-03-04T08:44:07.400Z,72.60
2018-03-04T08:45:07.556Z,73.30
2018-03-04T08:46:07.711Z,72.30
2018-03-04T08:47:07.865Z,73.80
2018-03-04T08:48:08.022Z,73.60
2018-03-04T08:49:08.168Z,70.90
2018-03-04T08:50:08.322Z,72.30
2018-03-04T08:51:08.476Z,73.30
2018-03-04T08:52:08.631Z,73.90
2018-03-04T08:53:08.780Z,74.80
2018-03-04T08:54:08.938Z,74.30
2018-03-04T08:55:09.096Z,73.10
2018-03-04T08:56:09.243Z,75.90
2018-03-04T08:57:09.398Z,76.20
2018-03-04T08:58:09.551Z,74.60
2018-03-04T08:59:09.704Z,73.80
2018-03-04T09:00:09.867Z,71.70
2018-03-04T09:01:09.997Z,72.70
2018-03-04T09:02:10.154Z,72.00
2018-03-04T09:03:10.308Z,72.60
2018-03-04T09:04:10.462Z,74.00
2018-03-04T09:05:10.610Z,76.80
2018-03-04T09:06:10.776Z,77.10
2018-03-04T09:07:10.929Z,75.80
2018-03-04T09:08:11.085Z,74.90
2018-03-04T09:09:11.244Z,75.70
2018-03-04T09:10:11.391Z,76.70
2018-03-04T09:11:11.545Z,73.60
2018-03-04T09:12:11.699Z,74.70
2018-03-04T09:13:11.854Z,74.60
2018-03-04T09:14:12.000Z,76.00
2018-03-04T09:15:12.163Z,75.50
2018-03-04T09:16:12.318Z,75.10
2018-03-04T09:17:12.466Z,74.50
2018-03-04T09:18:12.620Z,75.20
2018-03-04T09:19:12.775Z,74.10
2018-03-04T09:20:12.929Z,72.60
2018-03-04T09:21:13.076Z,74.50
2018-03-04T09:22:13.246Z,75.70
2018-03-04T09:23:13.400Z,74.00
2018-03-04T09:24:13.555Z,73.50
2018-03-04T09:25:13.714Z,75.10
2018-03-04T09:26:13.886Z,74.60
2018-03-04T09:27:14.015Z,70.50
2018-03-04T09:28:14.169Z,74.00
2018-03-04T09:29:14.326Z,73.90
2018-03-04T09:30:14.481Z,72.20
2018-03-04T09:31:14.645Z,73.50
2018-03-04T09:32:14.799Z,73.50
2018-03-04T09:33:14.965Z,73.10
2018-03-04T09:34:15.119Z,74.80
2018-03-04T09:35:15.273Z,73.40
2018-03-04T09:36:15.430Z,73.80
2018-03-04T09:37:15.576Z,72.60
2018-03-04T09:38:15.730Z,73.30
2018-03-04T09:39:15.887Z,72.50
2018-03-04T09:40:16.042Z,73.00
2018-03-04T09:41:16.191Z,72.90
2018-03-04T09:42:16.363Z,73.80
2018-03-04T09:43:16.519Z,75.10
2018-03-04T09:44:16.700Z,74.70
2018-03-04T09:45:16.836Z,75.50
2018-03-04T09:46:17.000Z,74.50
2018-03-04T09:47:17.156Z,73.00
2018-03-04T09:48:17.311Z,74.10
2018-03-04T09:49:17.470Z,74.10
2018-03-04T09:50:17.617Z,74.90
2018-03-04T09:51:17.774Z,73.10
2018-03-04T09:52:17.928Z,72.50
2018-03-04T09:53:18.085Z,70.50
2018-03-04T09:54:18.238Z,71.00
2018-03-04T09:55:18.398Z,69.50
2018-03-04T09:56:18.553Z,69.60
2018-03-04T09:57:18.723Z,73.00
2018-03-04T09:58:18.873Z,70.40
2018-03-04T09:59:19.028Z,73.30
2018-03-04T10:00:19.199Z,72.90
2018-03-04T10:01:19.340Z,72.10
2018-03-04T10:02:19.497Z,70.30
2018-03-04T10:03:19.657Z,72.10
2018-03-04T10:04:19.815Z,71.20
2018-03-04T10:05:19.968Z,74.10
2018-03-04T10:06:20.123Z,70.90
2018-03-04T10:07:20.280Z,69.80
2018-03-04T10:08:20.437Z,70.80
2018-03-04T10:09:20.593Z,71.00
2018-03-04T10:10:20.756Z,70.20
2018-03-04T10:11:20.912Z,69.60
2018-03-04T10:12:21.080Z,72.50
2018-03-04T10:13:21.234Z,70.80
2018-03-04T10:14:21.398Z,70.70
2018-03-04T10:15:21.552Z,72.10
2018-03-04T10:16:21.719Z,68.50
2018-03-04T10:17:21.876Z,69.60
2018-03-04T10:18:22.041Z,70.60
2018-03-04T10:19:22.199Z,71.80
2018-03-04T10:20:22.377Z,70.50
2018-03-04T10:21:22.517Z,68.80
2018-03-04T10:22:22.685Z,69.10
2018-03-04T10:23:22.842Z,71.20
2018-03-04T10:24:23.007Z,68.30
2018-03-04T10:25:23.155Z,67.40
2018-03-04T10:26:23.328Z,69.30
2018-03-04T10:27:23.484Z,67.10
2018-03-04T10:28:23.654Z,69.80
2018-03-04T10:29:23.808Z,68.00
2018-03-04T10:30:23.970Z,69.20
2018-03-04T10:31:24.121Z,69.00
2018-03-04T10:32:24.291Z,67.40
2018-03-04T10:33:24.448Z,68.30
2018-03-04T10:34:24.612Z,67.80
2018-03-04T10:35:24.765Z,69.30
2018-03-04T10:36:24.934Z,67.50
2018-03-04T10:37:25.087Z,69.10
2018-03-04T10:38:25.257Z,69.80
2018-03-04T10:39:25.410Z,71.80
2018-03-04T10:40:25.577Z,70.00
2018-03-04T10:41:25.735Z,72.30
2018-03-04T10:42:25.899Z,69.60
2018-03-04T10:43:26.050Z,69.80
2018-03-04T10:44:26.220Z,68.90
2018-03-04T10:45:26.377Z,68.40
2018-03-04T10:46:26.543Z,67.70
2018-03-04T10:47:26.699Z,70.50
2018-03-04T10:48:26.863Z,68.00
2018-03-04T10:49:27.021Z,70.00
2018-03-04T10:50:27.169Z,70.70
2018-03-04T10:51:27.330Z,70.10
2018-03-04T10:52:27.490Z,69.30
2018-03-04T10:53:27.639Z,70.30
2018-03-04T10:54:27.796Z,70.30
2018-03-04T10:55:27.953Z,70.60
2018-03-04T10:56:28.116Z,70.30
2018-03-04T10:57:28.267Z,69.60
2018-03-04T10:58:28.424Z,69.60
2018-03-04T10:59:28.582Z,68.30
2018-03-04T11:00:28.733Z,68.40
2018-03-04T11:01:28.906Z,65.80
2018-03-04T11:02:29.066Z,67.80
2018-03-04T11:03:29.227Z,68.90
2018-03-04T11:04:29.391Z,68.80
2018-03-04T11:05:29.531Z,66.00
2018-03-04T11:06:29.690Z,66.10
2018-03-04T11:07:29.843Z,67.50
2018-03-04T11:08:29.999Z,66.00
2018-03-04T11:09:30.157Z,67.70
2018-03-04T11:10:30.314Z,67.60
2018-03-04T11:11:30.504Z,66.50
2018-03-04T11:12:30.628Z,66.80
2018-03-04T11:13:30.786Z,65.70
2018-03-04T11:14:30.945Z,67.50
2018-03-04T11:15:31.098Z,66.70
2018-03-04T11:16:31.262Z,65.00
2018-03-04T11:17:31.416Z,67.20
2018-03-04T11:18:31.587Z,68.70
2018-03-04T11:19:31.744Z,69.60
2018-03-04T11:20:31.957Z,71.40
2018-03-04T11:21:32.058Z,72.70
2018-03-04T11:22:32.234Z,70.70
2018-03-04T11:23:32.390Z,68.30
2018-03-04T11:24:32.548Z,69.00
2018-03-04T11:25:32.706Z,69.40
2018-03-04T11:26:32.876Z,67.90
2018-03-04T11:27:33.026Z,66.00
2018-03-04T11:28:33.237Z,66.60
2018-03-04T11:29:33.350Z,66.30
2018-03-04T11:30:33.513Z,67.00
2018-03-04T11:31:33.671Z,67.60
2018-03-04T11:32:33.833Z,67.10
2018-03-04T11:33:33.987Z,67.10
2018-03-04T11:34:34.165Z,67.80
2018-03-04T11:35:34.320Z,66.90
2018-03-04T11:36:34.481Z,66.20
2018-03-04T11:37:34.639Z,67.10
2018-03-04T11:38:34.802Z,66.30
2018-03-04T11:39:34.963Z,65.40
2018-03-04T11:40:35.119Z,65.70
2018-03-04T11:41:35.277Z,65.50
2018-03-04T11:42:35.442Z,65.60
2018-03-04T11:43:35.601Z,65.10
2018-03-04T11:44:35.768Z,65.70
2018-03-04T11:45:35.923Z,66.10
2018-03-04T11:46:36.093Z,65.60
2018-03-04T11:47:36.249Z,63.00
2018-03-04T11:48:36.407Z,64.50
2018-03-04T11:49:36.565Z,64.50
2018-03-04T11:50:36.727Z,63.10
2018-03-04T11:51:36.886Z,64.90
2018-03-04T11:52:37.052Z,65.00
2018-03-04T11:53:37.208Z,63.00
2018-03-04T11:54:37.375Z,63.50
2018-03-04T11:55:37.530Z,64.00
2018-03-04T11:56:37.691Z,65.80
2018-03-04T11:57:37.849Z,62.00
2018-03-04T11:58:38.016Z,64.50
2018-03-04T11:59:38.175Z,65.90
2018-03-04T12:00:38.333Z,63.10
2018-03-04T12:01:38.493Z,63.80
2018-03-04T12:02:38.656Z,65.00
2018-03-04T12:03:38.814Z,64.10
2018-03-04T12:04:38.981Z,62.30
2018-03-04T12:05:39.139Z,62.50
2018-03-04T12:06:39.298Z,62.70
2018-03-04T12:07:39.456Z,61.70
2018-03-04T12:08:39.619Z,62.00
2018-03-04T12:09:39.795Z,60.50
2018-03-04T12:10:39.970Z,62.10
2018-03-04T12:11:40.107Z,64.10
2018-03-04T12:12:40.268Z,61.00
2018-03-04T12:13:40.427Z,61.40
2018-03-04T12:14:40.640Z,61.60
2018-03-04T12:15:40.747Z,62.10
2018-03-04T12:16:40.906Z,62.50
2018-03-04T12:17:41.065Z,60.90
2018-03-04T12:18:41.228Z,61.40
2018-03-04T12:19:41.387Z,60.90
2018-03-04T12:20:41.549Z,62.60
2018-03-04T12:21:41.702Z,60.80
2018-03-04T12:22:41.871Z,58.60
2018-03-04T12:23:42.030Z,59.50
2018-03-04T12:24:42.191Z,59.70
2018-03-04T12:25:42.351Z,59.60
2018-03-04T12:26:42.513Z,59.50
2018-03-04T12:27:42.672Z,60.30
2018-03-04T12:28:42.835Z,59.20
2018-03-04T12:29:42.988Z,59.60
2018-03-04T12:30:43.156Z,60.00
2018-03-04T12:31:43.320Z,59.60
2018-03-04T12:32:43.477Z,57.80
2018-03-04T12:33:43.640Z,56.80
2018-03-04T12:34:43.798Z,56.20
2018-03-04T12:35:43.958Z,57.80
2018-03-04T12:36:44.181Z,57.10
2018-03-04T12:37:44.281Z,57.80
2018-03-04T12:38:44.442Z,58.10
2018-03-04T12:39:44.606Z,56.90
2018-03-04T12:40:44.766Z,58.20
2018-03-04T12:41:44.922Z,56.10
2018-03-04T12:42:45.085Z,58.50
2018-03-04T12:43:45.244Z,58.00
2018-03-04T12:44:45.411Z,58.60
2018-03-04T12:45:45.566Z,59.10
2018-03-04T12:46:45.727Z,57.30
2018-03-04T12:47:45.886Z,57.70
2018-03-04T12:48:46.049Z,55.40
2018-03-04T12:49:46.210Z,55.30
2018-03-04T12:50:46.371Z,53.90
2018-03-04T12:51:46.524Z,54.40
2018-03-04T12:52:46.694Z,55.40
2018-03-04T12:53:46.853Z,54.10
2018-03-04T12:54:47.014Z,54.40